Terminal Aerodrome Forecast
Issued by NWS Charleston, WV

Current Version | Previous Version | Text Only | Print | Product List | Glossary On
Versions: 1 2 3 4 5 6 7 8 9 10 11 12 13 14 15 16 17 18 19 20 21 22 23 24 25 26 27 28
000
FTUS41 KRLX 301700
TAFBKW
TAF
KBKW 301733Z 3018/3118 32015G27KT 2SM -SHSN OVC025
     FM301900 32014G26KT 5SM -SHSN BKN025
     FM302200 32012G21KT P6SM -SHSN BKN025
     FM310300 31010G16KT P6SM BKN020
     FM310700 31008G14KT P6SM SCT015
     FM311700 29007KT P6SM SCT200=

USA.gov is the U.S. government's official web portal to all federal, state and local government web resources and services.